sensor_id;sensor_type;location;lat;lon;timestamp;P1;durP1;ratioP1;P2;durP2;ratioP2
22480;SDS011;11407;56.964;-2.212;2023-09-18T00:01:18;2.40;;;1.40;;
22480;SDS011;11407;56.964;-2.212;2023-09-18T00:03:44;3.73;;;1.60;;
22480;SDS011;11407;56.964;-2.212;2023-09-18T00:06:10;2.50;;;1.37;;
22480;SDS011;11407;56.964;-2.212;2023-09-18T00:08:36;7.13;;;1.80;;
22480;SDS011;11407;56.964;-2.212;2023-09-18T00:11:03;2.73;;;1.90;;
22480;SDS011;11407;56.964;-2.212;2023-09-18T00:13:29;4.57;;;1.60;;
22480;SDS011;11407;56.964;-2.212;2023-09-18T00:15:55;3.70;;;1.53;;
22480;SDS011;11407;56.964;-2.212;2023-09-18T00:18:20;5.17;;;1.60;;
22480;SDS011;11407;56.964;-2.212;2023-09-18T00:20:46;4.50;;;1.50;;
22480;SDS011;11407;56.964;-2.212;2023-09-18T00:23:13;5.73;;;1.77;;
22480;SDS011;11407;56.964;-2.212;2023-09-18T00:25:38;3.37;;;1.60;;
22480;SDS011;11407;56.964;-2.212;2023-09-18T00:28:06;4.47;;;1.80;;
22480;SDS011;11407;56.964;-2.212;2023-09-18T00:30:31;6.97;;;1.80;;
22480;SDS011;11407;56.964;-2.212;2023-09-18T00:32:56;6.30;;;1.60;;
22480;SDS011;11407;56.964;-2.212;2023-09-18T00:35:21;6.07;;;1.57;;
22480;SDS011;11407;56.964;-2.212;2023-09-18T00:37:48;6.23;;;1.70;;
22480;SDS011;11407;56.964;-2.212;2023-09-18T00:40:14;7.40;;;1.90;;
22480;SDS011;11407;56.964;-2.212;2023-09-18T00:42:39;2.30;;;1.37;;
22480;SDS011;11407;56.964;-2.212;2023-09-18T00:45:04;4.63;;;1.40;;
22480;SDS011;11407;56.964;-2.212;2023-09-18T00:47:30;7.90;;;1.93;;
22480;SDS011;11407;56.964;-2.212;2023-09-18T00:49:55;5.33;;;1.83;;
22480;SDS011;11407;56.964;-2.212;2023-09-18T00:52:21;7.60;;;2.03;;
22480;SDS011;11407;56.964;-2.212;2023-09-18T00:54:47;8.43;;;1.73;;
22480;SDS011;11407;56.964;-2.212;2023-09-18T00:57:13;3.83;;;1.67;;
22480;SDS011;11407;56.964;-2.212;2023-09-18T00:59:38;6.57;;;2.10;;
22480;SDS011;11407;56.964;-2.212;2023-09-18T01:02:04;5.83;;;1.77;;
22480;SDS011;11407;56.964;-2.212;2023-09-18T01:04:29;4.03;;;2.13;;
22480;SDS011;11407;56.964;-2.212;2023-09-18T01:06:55;5.30;;;1.87;;
22480;SDS011;11407;56.964;-2.212;2023-09-18T01:09:21;9.97;;;2.17;;
22480;SDS011;11407;56.964;-2.212;2023-09-18T01:16:56;5.90;;;2.30;;
22480;SDS011;11407;56.964;-2.212;2023-09-18T01:22:03;8.73;;;2.00;;
22480;SDS011;11407;56.964;-2.212;2023-09-18T01:24:28;2.50;;;1.80;;
22480;SDS011;11407;56.964;-2.212;2023-09-18T01:26:53;7.27;;;2.10;;
22480;SDS011;11407;56.964;-2.212;2023-09-18T01:29:19;5.77;;;2.10;;
22480;SDS011;11407;56.964;-2.212;2023-09-18T01:31:44;8.43;;;2.10;;
22480;SDS011;11407;56.964;-2.212;2023-09-18T01:34:12;4.73;;;1.73;;
22480;SDS011;11407;56.964;-2.212;2023-09-18T01:36:37;8.67;;;2.00;;
22480;SDS011;11407;56.964;-2.212;2023-09-18T01:39:03;3.63;;;1.70;;
22480;SDS011;11407;56.964;-2.212;2023-09-18T01:41:28;5.73;;;1.77;;
22480;SDS011;11407;56.964;-2.212;2023-09-18T01:43:54;6.17;;;1.80;;
22480;SDS011;11407;56.964;-2.212;2023-09-18T01:46:20;6.80;;;1.80;;
22480;SDS011;11407;56.964;-2.212;2023-09-18T01:48:46;4.83;;;2.10;;
22480;SDS011;11407;56.964;-2.212;2023-09-18T01:51:13;5.10;;;1.90;;
22480;SDS011;11407;56.964;-2.212;2023-09-18T01:53:38;5.63;;;2.07;;
22480;SDS011;11407;56.964;-2.212;2023-09-18T01:56:04;4.63;;;1.80;;
22480;SDS011;11407;56.964;-2.212;2023-09-18T01:58:29;5.87;;;2.33;;
22480;SDS011;11407;56.964;-2.212;2023-09-18T02:00:54;6.77;;;2.17;;
22480;SDS011;11407;56.964;-2.212;2023-09-18T02:03:19;4.67;;;2.00;;
22480;SDS011;11407;56.964;-2.212;2023-09-18T02:05:46;6.07;;;1.97;;
22480;SDS011;11407;56.964;-2.212;2023-09-18T02:08:11;8.33;;;2.03;;
22480;SDS011;11407;56.964;-2.212;2023-09-18T02:10:36;3.53;;;1.87;;
22480;SDS011;11407;56.964;-2.212;2023-09-18T02:13:01;8.63;;;2.20;;
22480;SDS011;11407;56.964;-2.212;2023-09-18T02:15:29;3.63;;;1.80;;
22480;SDS011;11407;56.964;-2.212;2023-09-18T02:17:56;7.47;;;1.93;;
22480;SDS011;11407;56.964;-2.212;2023-09-18T02:20:21;11.57;;;2.57;;
22480;SDS011;11407;56.964;-2.212;2023-09-18T02:22:46;5.03;;;1.80;;
22480;SDS011;11407;56.964;-2.212;2023-09-18T02:25:12;6.33;;;2.17;;
22480;SDS011;11407;56.964;-2.212;2023-09-18T02:27:37;7.90;;;2.10;;
22480;SDS011;11407;56.964;-2.212;2023-09-18T02:30:02;4.60;;;1.90;;
22480;SDS011;11407;56.964;-2.212;2023-09-18T02:32:28;5.27;;;1.93;;
22480;SDS011;11407;56.964;-2.212;2023-09-18T02:34:53;9.63;;;2.30;;
22480;SDS011;11407;56.964;-2.212;2023-09-18T02:37:18;6.97;;;2.10;;
22480;SDS011;11407;56.964;-2.212;2023-09-18T02:39:43;8.43;;;2.13;;
22480;SDS011;11407;56.964;-2.212;2023-09-18T02:42:09;6.20;;;2.13;;
22480;SDS011;11407;56.964;-2.212;2023-09-18T02:44:34;8.63;;;2.47;;
22480;SDS011;11407;56.964;-2.212;2023-09-18T02:46:59;6.83;;;1.93;;
22480;SDS011;11407;56.964;-2.212;2023-09-18T02:49:24;6.57;;;1.97;;
22480;SDS011;11407;56.964;-2.212;2023-09-18T02:51:50;5.47;;;2.27;;
22480;SDS011;11407;56.964;-2.212;2023-09-18T02:54:15;8.20;;;2.30;;
22480;SDS011;11407;56.964;-2.212;2023-09-18T02:56:40;7.53;;;2.10;;
22480;SDS011;11407;56.964;-2.212;2023-09-18T02:59:05;5.50;;;2.33;;
22480;SDS011;11407;56.964;-2.212;2023-09-18T03:01:31;6.77;;;2.30;;
22480;SDS011;11407;56.964;-2.212;2023-09-18T03:03:56;5.73;;;2.23;;
22480;SDS011;11407;56.964;-2.212;2023-09-18T03:06:21;4.57;;;2.00;;
22480;SDS011;11407;56.964;-2.212;2023-09-18T03:08:46;8.00;;;2.60;;
22480;SDS011;11407;56.964;-2.212;2023-09-18T03:11:12;8.33;;;1.93;;
22480;SDS011;11407;56.964;-2.212;2023-09-18T03:13:42;6.83;;;2.20;;
22480;SDS011;11407;56.964;-2.212;2023-09-18T03:16:09;8.50;;;2.40;;
22480;SDS011;11407;56.964;-2.212;2023-09-18T03:18:34;10.53;;;2.40;;
22480;SDS011;11407;56.964;-2.212;2023-09-18T03:21:00;6.13;;;2.47;;
22480;SDS011;11407;56.964;-2.212;2023-09-18T03:23:25;9.30;;;2.67;;
22480;SDS011;11407;56.964;-2.212;2023-09-18T03:25:50;9.23;;;2.77;;
22480;SDS011;11407;56.964;-2.212;2023-09-18T03:28:16;4.60;;;2.17;;
22480;SDS011;11407;56.964;-2.212;2023-09-18T03:30:41;8.53;;;2.50;;
22480;SDS011;11407;56.964;-2.212;2023-09-18T03:33:06;6.87;;;2.93;;
22480;SDS011;11407;56.964;-2.212;2023-09-18T03:35:32;5.27;;;2.23;;
22480;SDS011;11407;56.964;-2.212;2023-09-18T03:37:57;8.27;;;2.20;;
22480;SDS011;11407;56.964;-2.212;2023-09-18T03:40:22;7.87;;;2.50;;
22480;SDS011;11407;56.964;-2.212;2023-09-18T03:42:48;9.53;;;2.70;;
22480;SDS011;11407;56.964;-2.212;2023-09-18T03:45:14;7.10;;;2.63;;
22480;SDS011;11407;56.964;-2.212;2023-09-18T03:47:40;9.03;;;2.63;;
22480;SDS011;11407;56.964;-2.212;2023-09-18T03:50:06;6.23;;;2.40;;
22480;SDS011;11407;56.964;-2.212;2023-09-18T03:52:31;8.60;;;2.90;;
22480;SDS011;11407;56.964;-2.212;2023-09-18T03:54:56;8.73;;;2.43;;
22480;SDS011;11407;56.964;-2.212;2023-09-18T03:57:22;8.63;;;2.37;;
22480;SDS011;11407;56.964;-2.212;2023-09-18T03:59:47;9.43;;;2.63;;
22480;SDS011;11407;56.964;-2.212;2023-09-18T04:02:12;10.13;;;2.50;;
22480;SDS011;11407;56.964;-2.212;2023-09-18T04:04:37;4.67;;;2.67;;
22480;SDS011;11407;56.964;-2.212;2023-09-18T04:07:06;8.43;;;2.37;;
22480;SDS011;11407;56.964;-2.212;2023-09-18T04:09:31;7.73;;;2.30;;
22480;SDS011;11407;56.964;-2.212;2023-09-18T04:11:57;9.83;;;2.80;;
22480;SDS011;11407;56.964;-2.212;2023-09-18T04:14:22;7.37;;;2.60;;
22480;SDS011;11407;56.964;-2.212;2023-09-18T04:16:47;7.73;;;2.47;;
22480;SDS011;11407;56.964;-2.212;2023-09-18T04:19:13;5.27;;;2.33;;
22480;SDS011;11407;56.964;-2.212;2023-09-18T04:21:38;7.80;;;2.77;;
22480;SDS011;11407;56.964;-2.212;2023-09-18T04:24:03;10.97;;;2.70;;
22480;SDS011;11407;56.964;-2.212;2023-09-18T04:26:29;9.90;;;2.27;;
22480;SDS011;11407;56.964;-2.212;2023-09-18T04:28:58;5.67;;;2.37;;
22480;SDS011;11407;56.964;-2.212;2023-09-18T04:31:24;7.80;;;2.60;;
22480;SDS011;11407;56.964;-2.212;2023-09-18T04:33:49;6.50;;;2.60;;
22480;SDS011;11407;56.964;-2.212;2023-09-18T04:36:14;6.67;;;2.70;;
22480;SDS011;11407;56.964;-2.212;2023-09-18T04:38:40;6.97;;;2.77;;
22480;SDS011;11407;56.964;-2.212;2023-09-18T04:41:05;5.03;;;2.60;;
22480;SDS011;11407;56.964;-2.212;2023-09-18T04:43:33;4.80;;;2.70;;
22480;SDS011;11407;56.964;-2.212;2023-09-18T04:45:59;5.40;;;2.53;;
22480;SDS011;11407;56.964;-2.212;2023-09-18T04:48:25;7.67;;;2.63;;
22480;SDS011;11407;56.964;-2.212;2023-09-18T04:50:50;6.63;;;2.77;;
22480;SDS011;11407;56.964;-2.212;2023-09-18T04:53:15;7.70;;;2.80;;
22480;SDS011;11407;56.964;-2.212;2023-09-18T04:55:41;6.73;;;2.73;;
22480;SDS011;11407;56.964;-2.212;2023-09-18T04:58:06;9.33;;;2.90;;
22480;SDS011;11407;56.964;-2.212;2023-09-18T05:00:31;6.47;;;3.03;;
22480;SDS011;11407;56.964;-2.212;2023-09-18T05:02:58;9.60;;;2.80;;
22480;SDS011;11407;56.964;-2.212;2023-09-18T05:05:28;6.53;;;2.73;;
22480;SDS011;11407;56.964;-2.212;2023-09-18T05:07:54;8.83;;;2.90;;
22480;SDS011;11407;56.964;-2.212;2023-09-18T05:10:19;9.00;;;3.10;;
22480;SDS011;11407;56.964;-2.212;2023-09-18T05:12:45;9.90;;;3.10;;
22480;SDS011;11407;56.964;-2.212;2023-09-18T05:15:10;8.03;;;3.07;;
22480;SDS011;11407;56.964;-2.212;2023-09-18T05:17:42;7.97;;;2.80;;
22480;SDS011;11407;56.964;-2.212;2023-09-18T05:20:08;7.87;;;2.97;;
22480;SDS011;11407;56.964;-2.212;2023-09-18T05:22:35;7.00;;;2.60;;
22480;SDS011;11407;56.964;-2.212;2023-09-18T05:25:00;9.53;;;3.07;;
22480;SDS011;11407;56.964;-2.212;2023-09-18T05:27:26;9.13;;;3.57;;
22480;SDS011;11407;56.964;-2.212;2023-09-18T05:29:51;11.57;;;3.33;;
22480;SDS011;11407;56.964;-2.212;2023-09-18T05:32:16;6.43;;;2.90;;
22480;SDS011;11407;56.964;-2.212;2023-09-18T05:34:41;10.27;;;3.07;;
22480;SDS011;11407;56.964;-2.212;2023-09-18T05:37:07;10.77;;;3.03;;
22480;SDS011;11407;56.964;-2.212;2023-09-18T05:39:32;13.70;;;3.27;;
22480;SDS011;11407;56.964;-2.212;2023-09-18T05:41:57;8.77;;;3.33;;
22480;SDS011;11407;56.964;-2.212;2023-09-18T05:44:23;13.90;;;3.67;;
22480;SDS011;11407;56.964;-2.212;2023-09-18T05:46:48;8.47;;;3.23;;
22480;SDS011;11407;56.964;-2.212;2023-09-18T05:49:14;10.13;;;3.13;;
22480;SDS011;11407;56.964;-2.212;2023-09-18T05:51:39;10.57;;;3.23;;
22480;SDS011;11407;56.964;-2.212;2023-09-18T05:54:04;10.50;;;2.93;;
22480;SDS011;11407;56.964;-2.212;2023-09-18T05:56:30;9.10;;;3.00;;
22480;SDS011;11407;56.964;-2.212;2023-09-18T05:58:55;11.13;;;3.80;;
22480;SDS011;11407;56.964;-2.212;2023-09-18T06:01:20;8.37;;;3.47;;
22480;SDS011;11407;56.964;-2.212;2023-09-18T06:03:46;11.20;;;3.50;;
22480;SDS011;11407;56.964;-2.212;2023-09-18T06:06:12;6.73;;;3.10;;
22480;SDS011;11407;56.964;-2.212;2023-09-18T06:08:38;9.30;;;3.07;;
22480;SDS011;11407;56.964;-2.212;2023-09-18T06:11:03;10.40;;;3.33;;
22480;SDS011;11407;56.964;-2.212;2023-09-18T06:13:28;10.00;;;3.40;;
22480;SDS011;11407;56.964;-2.212;2023-09-18T06:15:53;11.30;;;3.03;;
22480;SDS011;11407;56.964;-2.212;2023-09-18T06:18:20;8.53;;;3.53;;
22480;SDS011;11407;56.964;-2.212;2023-09-18T06:20:50;8.33;;;3.10;;
22480;SDS011;11407;56.964;-2.212;2023-09-18T06:23:16;6.60;;;2.93;;
22480;SDS011;11407;56.964;-2.212;2023-09-18T06:25:41;9.83;;;3.47;;
22480;SDS011;11407;56.964;-2.212;2023-09-18T06:28:07;9.77;;;3.50;;
22480;SDS011;11407;56.964;-2.212;2023-09-18T06:30:32;9.30;;;3.60;;
22480;SDS011;11407;56.964;-2.212;2023-09-18T06:32:58;9.67;;;3.97;;
22480;SDS011;11407;56.964;-2.212;2023-09-18T06:35:24;11.50;;;3.60;;
22480;SDS011;11407;56.964;-2.212;2023-09-18T06:37:49;11.03;;;4.00;;
22480;SDS011;11407;56.964;-2.212;2023-09-18T06:40:14;7.27;;;3.37;;
22480;SDS011;11407;56.964;-2.212;2023-09-18T06:42:40;9.23;;;3.87;;
22480;SDS011;11407;56.964;-2.212;2023-09-18T06:45:05;11.33;;;3.67;;
22480;SDS011;11407;56.964;-2.212;2023-09-18T06:47:32;11.80;;;4.03;;
22480;SDS011;11407;56.964;-2.212;2023-09-18T06:49:57;7.77;;;3.80;;
22480;SDS011;11407;56.964;-2.212;2023-09-18T06:52:23;8.93;;;3.60;;
22480;SDS011;11407;56.964;-2.212;2023-09-18T06:54:50;9.03;;;3.67;;
22480;SDS011;11407;56.964;-2.212;2023-09-18T06:57:15;14.47;;;4.00;;
22480;SDS011;11407;56.964;-2.212;2023-09-18T06:59:40;11.90;;;3.60;;
22480;SDS011;11407;56.964;-2.212;2023-09-18T07:02:05;8.93;;;3.70;;
22480;SDS011;11407;56.964;-2.212;2023-09-18T07:04:31;11.33;;;3.70;;
22480;SDS011;11407;56.964;-2.212;2023-09-18T07:06:56;9.47;;;4.27;;
22480;SDS011;11407;56.964;-2.212;2023-09-18T07:09:22;12.70;;;3.73;;
22480;SDS011;11407;56.964;-2.212;2023-09-18T07:11:51;12.90;;;4.70;;
22480;SDS011;11407;56.964;-2.212;2023-09-18T07:14:16;8.47;;;4.23;;
22480;SDS011;11407;56.964;-2.212;2023-09-18T07:16:41;12.20;;;3.90;;
22480;SDS011;11407;56.964;-2.212;2023-09-18T07:19:06;10.80;;;4.10;;
22480;SDS011;11407;56.964;-2.212;2023-09-18T07:21:37;10.37;;;4.43;;
22480;SDS011;11407;56.964;-2.212;2023-09-18T07:24:03;8.97;;;3.87;;
22480;SDS011;11407;56.964;-2.212;2023-09-18T07:26:29;9.07;;;4.47;;
22480;SDS011;11407;56.964;-2.212;2023-09-18T07:28:54;7.80;;;4.90;;
22480;SDS011;11407;56.964;-2.212;2023-09-18T07:31:19;10.13;;;4.20;;
22480;SDS011;11407;56.964;-2.212;2023-09-18T07:33:44;9.63;;;4.40;;
22480;SDS011;11407;56.964;-2.212;2023-09-18T07:36:10;13.40;;;4.87;;
22480;SDS011;11407;56.964;-2.212;2023-09-18T07:38:35;10.10;;;4.57;;
22480;SDS011;11407;56.964;-2.212;2023-09-18T07:41:02;8.57;;;4.60;;
22480;SDS011;11407;56.964;-2.212;2023-09-18T07:43:27;10.23;;;5.17;;
22480;SDS011;11407;56.964;-2.212;2023-09-18T07:45:53;9.63;;;4.83;;
22480;SDS011;11407;56.964;-2.212;2023-09-18T07:48:19;12.13;;;4.80;;
22480;SDS011;11407;56.964;-2.212;2023-09-18T07:50:45;8.77;;;4.93;;
22480;SDS011;11407;56.964;-2.212;2023-09-18T07:53:11;11.67;;;4.87;;
22480;SDS011;11407;56.964;-2.212;2023-09-18T07:55:36;9.50;;;4.93;;
22480;SDS011;11407;56.964;-2.212;2023-09-18T07:58:01;9.50;;;5.03;;
22480;SDS011;11407;56.964;-2.212;2023-09-18T08:00:28;7.47;;;5.40;;
22480;SDS011;11407;56.964;-2.212;2023-09-18T08:02:54;9.97;;;5.30;;
22480;SDS011;11407;56.964;-2.212;2023-09-18T08:05:23;9.73;;;5.63;;
22480;SDS011;11407;56.964;-2.212;2023-09-18T08:07:49;10.20;;;5.20;;
22480;SDS011;11407;56.964;-2.212;2023-09-18T08:10:16;13.47;;;5.73;;
22480;SDS011;11407;56.964;-2.212;2023-09-18T08:12:42;11.00;;;5.23;;
22480;SDS011;11407;56.964;-2.212;2023-09-18T08:15:08;8.90;;;5.20;;
22480;SDS011;11407;56.964;-2.212;2023-09-18T08:17:34;12.00;;;5.70;;
22480;SDS011;11407;56.964;-2.212;2023-09-18T08:19:59;10.63;;;5.47;;
22480;SDS011;11407;56.964;-2.212;2023-09-18T08:22:25;13.30;;;6.40;;
22480;SDS011;11407;56.964;-2.212;2023-09-18T08:24:50;12.63;;;6.20;;
22480;SDS011;11407;56.964;-2.212;2023-09-18T08:27:18;12.53;;;8.83;;
22480;SDS011;11407;56.964;-2.212;2023-09-18T08:29:44;12.47;;;6.90;;
22480;SDS011;11407;56.964;-2.212;2023-09-18T08:32:10;12.07;;;6.70;;
22480;SDS011;11407;56.964;-2.212;2023-09-18T08:34:35;11.53;;;6.73;;
22480;SDS011;11407;56.964;-2.212;2023-09-18T08:37:00;8.93;;;6.03;;
22480;SDS011;11407;56.964;-2.212;2023-09-18T08:39:25;11.50;;;6.77;;
22480;SDS011;11407;56.964;-2.212;2023-09-18T08:41:51;12.27;;;6.67;;
22480;SDS011;11407;56.964;-2.212;2023-09-18T08:44:20;12.47;;;6.40;;
22480;SDS011;11407;56.964;-2.212;2023-09-18T08:46:46;11.67;;;6.80;;
22480;SDS011;11407;56.964;-2.212;2023-09-18T08:49:11;11.47;;;7.03;;
22480;SDS011;11407;56.964;-2.212;2023-09-18T08:51:37;10.73;;;6.70;;
22480;SDS011;11407;56.964;-2.212;2023-09-18T08:54:03;10.67;;;7.17;;
22480;SDS011;11407;56.964;-2.212;2023-09-18T08:56:29;13.10;;;8.33;;
22480;SDS011;11407;56.964;-2.212;2023-09-18T08:58:55;15.30;;;8.67;;
22480;SDS011;11407;56.964;-2.212;2023-09-18T09:01:21;16.00;;;8.00;;
22480;SDS011;11407;56.964;-2.212;2023-09-18T09:03:47;14.00;;;8.67;;
22480;SDS011;11407;56.964;-2.212;2023-09-18T09:06:12;16.27;;;8.63;;
22480;SDS011;11407;56.964;-2.212;2023-09-18T09:08:37;22.43;;;9.40;;
22480;SDS011;11407;56.964;-2.212;2023-09-18T09:11:03;17.03;;;10.17;;
22480;SDS011;11407;56.964;-2.212;2023-09-18T09:13:28;17.33;;;11.00;;
22480;SDS011;11407;56.964;-2.212;2023-09-18T09:15:55;19.57;;;10.27;;
22480;SDS011;11407;56.964;-2.212;2023-09-18T09:18:21;18.77;;;9.90;;
22480;SDS011;11407;56.964;-2.212;2023-09-18T09:21:00;16.63;;;10.10;;
22480;SDS011;11407;56.964;-2.212;2023-09-18T09:23:29;16.23;;;9.20;;
22480;SDS011;11407;56.964;-2.212;2023-09-18T09:26:14;17.80;;;9.73;;
22480;SDS011;11407;56.964;-2.212;2023-09-18T09:28:40;16.17;;;8.77;;
22480;SDS011;11407;56.964;-2.212;2023-09-18T09:31:08;17.67;;;8.90;;
22480;SDS011;11407;56.964;-2.212;2023-09-18T09:33:33;18.93;;;9.17;;
22480;SDS011;11407;56.964;-2.212;2023-09-18T09:35:59;14.23;;;7.80;;
22480;SDS011;11407;56.964;-2.212;2023-09-18T09:38:30;11.77;;;6.77;;
22480;SDS011;11407;56.964;-2.212;2023-09-18T09:41:01;11.07;;;6.23;;
22480;SDS011;11407;56.964;-2.212;2023-09-18T09:43:27;9.10;;;5.67;;
22480;SDS011;11407;56.964;-2.212;2023-09-18T09:45:59;11.23;;;5.67;;
22480;SDS011;11407;56.964;-2.212;2023-09-18T09:48:25;7.57;;;4.73;;
22480;SDS011;11407;56.964;-2.212;2023-09-18T09:50:50;7.30;;;4.43;;
22480;SDS011;11407;56.964;-2.212;2023-09-18T09:53:16;17.03;;;4.63;;
22480;SDS011;11407;56.964;-2.212;2023-09-18T09:55:43;8.83;;;4.13;;
22480;SDS011;11407;56.964;-2.212;2023-09-18T09:58:08;6.83;;;4.20;;
22480;SDS011;11407;56.964;-2.212;2023-09-18T10:03:11;6.40;;;4.13;;
22480;SDS011;11407;56.964;-2.212;2023-09-18T10:05:37;4.67;;;3.27;;
22480;SDS011;11407;56.964;-2.212;2023-09-18T10:08:04;3.70;;;2.70;;
22480;SDS011;11407;56.964;-2.212;2023-09-18T10:10:32;3.87;;;2.10;;
22480;SDS011;11407;56.964;-2.212;2023-09-18T10:13:00;2.03;;;1.80;;
22480;SDS011;11407;56.964;-2.212;2023-09-18T10:15:26;1.93;;;1.67;;
22480;SDS011;11407;56.964;-2.212;2023-09-18T10:17:52;1.93;;;1.60;;
22480;SDS011;11407;56.964;-2.212;2023-09-18T10:20:21;2.67;;;1.80;;
22480;SDS011;11407;56.964;-2.212;2023-09-18T10:22:52;1.90;;;1.60;;
22480;SDS011;11407;56.964;-2.212;2023-09-18T10:25:20;2.20;;;1.60;;
22480;SDS011;11407;56.964;-2.212;2023-09-18T10:27:47;1.87;;;1.50;;
22480;SDS011;11407;56.964;-2.212;2023-09-18T10:30:14;3.13;;;1.57;;
22480;SDS011;11407;56.964;-2.212;2023-09-18T10:32:43;1.83;;;1.57;;
22480;SDS011;11407;56.964;-2.212;2023-09-18T10:35:10;1.67;;;1.57;;
22480;SDS011;11407;56.964;-2.212;2023-09-18T10:37:37;1.33;;;1.23;;
22480;SDS011;11407;56.964;-2.212;2023-09-18T10:40:03;2.40;;;1.53;;
22480;SDS011;11407;56.964;-2.212;2023-09-18T10:42:29;1.60;;;1.50;;
22480;SDS011;11407;56.964;-2.212;2023-09-18T10:44:56;1.50;;;1.40;;
22480;SDS011;11407;56.964;-2.212;2023-09-18T10:47:21;1.40;;;1.30;;
22480;SDS011;11407;56.964;-2.212;2023-09-18T10:49:46;1.93;;;1.40;;
22480;SDS011;11407;56.964;-2.212;2023-09-18T10:52:15;1.50;;;1.30;;
22480;SDS011;11407;56.964;-2.212;2023-09-18T10:54:40;1.37;;;1.27;;
22480;SDS011;11407;56.964;-2.212;2023-09-18T10:57:05;1.87;;;1.60;;
22480;SDS011;11407;56.964;-2.212;2023-09-18T10:59:30;1.30;;;1.20;;
22480;SDS011;11407;56.964;-2.212;2023-09-18T11:01:56;1.60;;;1.50;;
22480;SDS011;11407;56.964;-2.212;2023-09-18T11:04:23;1.60;;;1.50;;
22480;SDS011;11407;56.964;-2.212;2023-09-18T11:09:20;2.17;;;1.70;;
22480;SDS011;11407;56.964;-2.212;2023-09-18T11:11:45;1.80;;;1.70;;
22480;SDS011;11407;56.964;-2.212;2023-09-18T11:14:13;1.97;;;1.37;;
22480;SDS011;11407;56.964;-2.212;2023-09-18T11:16:40;1.20;;;1.10;;
22480;SDS011;11407;56.964;-2.212;2023-09-18T11:19:11;1.13;;;1.03;;
22480;SDS011;11407;56.964;-2.212;2023-09-18T11:21:38;1.17;;;1.07;;
22480;SDS011;11407;56.964;-2.212;2023-09-18T11:24:04;1.10;;;1.00;;
22480;SDS011;11407;56.964;-2.212;2023-09-18T11:28:58;0.90;;;0.90;;
22480;SDS011;11407;56.964;-2.212;2023-09-18T11:31:40;1.77;;;1.20;;
22480;SDS011;11407;56.964;-2.212;2023-09-18T11:34:15;1.10;;;1.00;;
22480;SDS011;11407;56.964;-2.212;2023-09-18T11:36:44;1.73;;;1.40;;
22480;SDS011;11407;56.964;-2.212;2023-09-18T11:39:09;3.67;;;1.70;;
22480;SDS011;11407;56.964;-2.212;2023-09-18T11:41:36;1.20;;;1.10;;
22480;SDS011;11407;56.964;-2.212;2023-09-18T11:46:32;1.30;;;1.20;;
22480;SDS011;11407;56.964;-2.212;2023-09-18T11:48:57;1.50;;;1.30;;
22480;SDS011;11407;56.964;-2.212;2023-09-18T11:51:24;2.40;;;2.00;;
22480;SDS011;11407;56.964;-2.212;2023-09-18T11:53:51;1.90;;;1.40;;
22480;SDS011;11407;56.964;-2.212;2023-09-18T11:56:17;2.30;;;1.30;;
22480;SDS011;11407;56.964;-2.212;2023-09-18T11:58:50;1.30;;;1.20;;
22480;SDS011;11407;56.964;-2.212;2023-09-18T12:01:17;1.20;;;1.10;;
22480;SDS011;11407;56.964;-2.212;2023-09-18T12:03:42;1.30;;;1.20;;
22480;SDS011;11407;56.964;-2.212;2023-09-18T12:06:08;1.10;;;1.00;;
22480;SDS011;11407;56.964;-2.212;2023-09-18T12:08:37;1.63;;;1.03;;
22480;SDS011;11407;56.964;-2.212;2023-09-18T12:11:06;1.17;;;0.83;;
22480;SDS011;11407;56.964;-2.212;2023-09-18T12:13:32;1.00;;;0.90;;
22480;SDS011;11407;56.964;-2.212;2023-09-18T12:16:06;0.50;;;0.50;;
22480;SDS011;11407;56.964;-2.212;2023-09-18T12:18:32;0.80;;;0.70;;
22480;SDS011;11407;56.964;-2.212;2023-09-18T12:20:59;0.90;;;0.77;;
22480;SDS011;11407;56.964;-2.212;2023-09-18T12:23:24;0.60;;;0.60;;
22480;SDS011;11407;56.964;-2.212;2023-09-18T12:25:50;1.23;;;0.90;;
22480;SDS011;11407;56.964;-2.212;2023-09-18T12:28:20;2.27;;;1.00;;
22480;SDS011;11407;56.964;-2.212;2023-09-18T12:30:46;0.70;;;0.70;;
22480;SDS011;11407;56.964;-2.212;2023-09-18T12:33:11;0.50;;;0.50;;
22480;SDS011;11407;56.964;-2.212;2023-09-18T12:35:37;1.90;;;0.70;;
22480;SDS011;11407;56.964;-2.212;2023-09-18T12:38:03;0.70;;;0.63;;
22480;SDS011;11407;56.964;-2.212;2023-09-18T12:40:38;1.03;;;0.70;;
22480;SDS011;11407;56.964;-2.212;2023-09-18T12:43:03;0.70;;;0.70;;
22480;SDS011;11407;56.964;-2.212;2023-09-18T12:45:31;0.70;;;0.70;;
22480;SDS011;11407;56.964;-2.212;2023-09-18T12:47:56;0.50;;;0.50;;
22480;SDS011;11407;56.964;-2.212;2023-09-18T12:50:22;0.83;;;0.70;;
22480;SDS011;11407;56.964;-2.212;2023-09-18T12:52:47;1.40;;;0.73;;
22480;SDS011;11407;56.964;-2.212;2023-09-18T12:55:25;0.50;;;0.50;;
22480;SDS011;11407;56.964;-2.212;2023-09-18T12:57:51;0.53;;;0.53;;
22480;SDS011;11407;56.964;-2.212;2023-09-18T13:00:20;1.47;;;0.63;;
22480;SDS011;11407;56.964;-2.212;2023-09-18T13:02:48;0.60;;;0.60;;
22480;SDS011;11407;56.964;-2.212;2023-09-18T13:05:18;0.70;;;0.60;;
22480;SDS011;11407;56.964;-2.212;2023-09-18T13:07:44;0.87;;;0.70;;
22480;SDS011;11407;56.964;-2.212;2023-09-18T13:10:12;0.80;;;0.70;;
22480;SDS011;11407;56.964;-2.212;2023-09-18T13:12:45;1.13;;;0.90;;
22480;SDS011;11407;56.964;-2.212;2023-09-18T13:15:11;0.60;;;0.60;;
22480;SDS011;11407;56.964;-2.212;2023-09-18T13:20:06;0.90;;;0.60;;
22480;SDS011;11407;56.964;-2.212;2023-09-18T13:22:32;0.80;;;0.80;;
22480;SDS011;11407;56.964;-2.212;2023-09-18T13:24:58;1.00;;;1.00;;
22480;SDS011;11407;56.964;-2.212;2023-09-18T13:27:23;0.77;;;0.70;;
22480;SDS011;11407;56.964;-2.212;2023-09-18T13:29:49;1.37;;;1.27;;
22480;SDS011;11407;56.964;-2.212;2023-09-18T13:32:14;1.10;;;1.00;;
22480;SDS011;11407;56.964;-2.212;2023-09-18T13:34:40;1.57;;;1.33;;
22480;SDS011;11407;56.964;-2.212;2023-09-18T13:37:05;1.83;;;1.40;;
22480;SDS011;11407;56.964;-2.212;2023-09-18T13:39:30;1.13;;;1.00;;
22480;SDS011;11407;56.964;-2.212;2023-09-18T13:41:55;0.80;;;0.80;;
22480;SDS011;11407;56.964;-2.212;2023-09-18T13:44:21;0.83;;;0.80;;
22480;SDS011;11407;56.964;-2.212;2023-09-18T13:46:47;1.30;;;0.90;;
22480;SDS011;11407;56.964;-2.212;2023-09-18T13:49:12;1.70;;;0.87;;
22480;SDS011;11407;56.964;-2.212;2023-09-18T13:51:37;1.47;;;1.00;;
22480;SDS011;11407;56.964;-2.212;2023-09-18T13:54:02;1.83;;;1.20;;
22480;SDS011;11407;56.964;-2.212;2023-09-18T13:56:29;1.27;;;0.80;;
22480;SDS011;11407;56.964;-2.212;2023-09-18T13:58:57;1.70;;;1.03;;
22480;SDS011;11407;56.964;-2.212;2023-09-18T14:01:23;1.17;;;0.90;;
22480;SDS011;11407;56.964;-2.212;2023-09-18T14:03:49;1.03;;;0.90;;
22480;SDS011;11407;56.964;-2.212;2023-09-18T14:06:15;0.83;;;0.80;;
22480;SDS011;11407;56.964;-2.212;2023-09-18T14:08:41;1.63;;;0.90;;
22480;SDS011;11407;56.964;-2.212;2023-09-18T14:11:06;1.10;;;1.00;;
22480;SDS011;11407;56.964;-2.212;2023-09-18T14:13:32;1.53;;;1.00;;
22480;SDS011;11407;56.964;-2.212;2023-09-18T14:15:57;1.47;;;1.00;;
22480;SDS011;11407;56.964;-2.212;2023-09-18T14:18:22;1.50;;;0.90;;
22480;SDS011;11407;56.964;-2.212;2023-09-18T14:20:48;1.70;;;1.20;;
22480;SDS011;11407;56.964;-2.212;2023-09-18T14:23:13;2.90;;;1.37;;
22480;SDS011;11407;56.964;-2.212;2023-09-18T14:25:38;3.03;;;1.80;;
22480;SDS011;11407;56.964;-2.212;2023-09-18T14:28:03;1.57;;;1.10;;
22480;SDS011;11407;56.964;-2.212;2023-09-18T14:30:29;1.60;;;1.20;;
22480;SDS011;11407;56.964;-2.212;2023-09-18T14:32:56;1.57;;;1.30;;
22480;SDS011;11407;56.964;-2.212;2023-09-18T14:35:21;1.57;;;1.10;;
22480;SDS011;11407;56.964;-2.212;2023-09-18T14:37:48;1.27;;;1.00;;
22480;SDS011;11407;56.964;-2.212;2023-09-18T14:40:14;1.27;;;1.00;;
22480;SDS011;11407;56.964;-2.212;2023-09-18T14:42:40;1.27;;;1.07;;
22480;SDS011;11407;56.964;-2.212;2023-09-18T14:45:05;1.33;;;1.10;;